»·PEaware :: PHKIM KAVX-KCRQ

PHKIM :: KAVX-KCRQ

FLIGHT INFORMATION

Flight Status: Arrived
Operator: Unknown
More flights by this operator :: More flights under this callsign
Pilot: Kim B. (19519)
Aircraft: MCDONNELL-DOUGLAS SKYTRAIN C-47
(DC3)
More flights by this aircraft type
Origin: KAVX Catalina
United States
Destination: KCRQ McClellan-Palomar
United States
More flights between these airports :: More routes between these airports
Route: +OCN
File this flight plan on PilotEdge
Remarks:
Altitude:
(Current/Filed)
5,000ft
Speed:
(Current/Filed)
140kts
Departed: 27-Oct-18 10:39 AM
Arrived: 27-Oct-18 11:18 AM
Distance/Time
Traveled:
60nm/0:39
Distance/Time
To Go:
Arrived

Flight Plot

Page will automatically refresh every two minutes.


Map Options




Map Legend


Flown Route
Filed Route
Departure Airport
Arrival Airport
Navaid (VOR, NDB)
Fix

Horizontal Profiles

Position Reports

Time Latitude Longitude Heading Altitude Ground
Speed
27-Oct-18 10:34 33.403292 -118.415955 44 1574ft 0kts
27-Oct-18 10:35 33.403292 -118.415955 44 1574ft 0kts
27-Oct-18 10:36 33.403292 -118.415955 44 1574ft 0kts
27-Oct-18 10:37 33.403303 -118.415938 15 1574ft 0kts
27-Oct-18 10:38 33.403479 -118.416287 294 1574ft 9kts
27-Oct-18 10:39 33.402537 -118.419213 235 1574ft 0kts
27-Oct-18 10:40 33.403042 -118.419028 54 1574ft 30kts
27-Oct-18 10:41 33.411023 -118.390659 145 2534ft 109kts
27-Oct-18 10:42 33.398403 -118.369234 97 4118ft 93kts
27-Oct-18 10:43 33.394795 -118.337342 97 5010ft 118kts
27-Oct-18 10:44 33.389256 -118.287823 97 4994ft 168kts
27-Oct-18 10:45 33.383155 -118.232611 97 4983ft 158kts
27-Oct-18 10:46 33.377651 -118.182192 97 4986ft 148kts
27-Oct-18 10:47 33.372358 -118.133141 97 4905ft 149kts
27-Oct-18 10:48 33.362808 -118.086311 107 4906ft 143kts
27-Oct-18 10:49 33.352044 -118.040455 104 4905ft 142kts
27-Oct-18 10:50 33.344589 -118.002098 101 4906ft 142kts
27-Oct-18 10:52 33.335271 -117.948243 101 4906ft 141kts
27-Oct-18 10:52 33.328534 -117.909672 101 4906ft 141kts
27-Oct-18 10:53 33.320489 -117.863774 101 4906ft 141kts
27-Oct-18 10:54 33.312350 -117.817645 102 4906ft 141kts
27-Oct-18 10:55 33.308455 -117.771698 104 4909ft 140kts
27-Oct-18 10:57 33.298548 -117.720888 102 4905ft 141kts
27-Oct-18 10:57 33.291336 -117.682724 102 4906ft 141kts
27-Oct-18 10:59 33.281239 -117.629327 102 4906ft 141kts
27-Oct-18 10:59 33.273982 -117.591031 102 4906ft 141kts
27-Oct-18 11:00 33.267146 -117.545095 86 4914ft 140kts
27-Oct-18 11:01 33.269758 -117.498402 85 4906ft 141kts
27-Oct-18 11:02 33.272470 -117.451352 85 4906ft 141kts
27-Oct-18 11:03 33.274431 -117.405492 90 4905ft 141kts
27-Oct-18 11:04 33.273808 -117.358643 90 4906ft 141kts
27-Oct-18 11:05 33.273244 -117.312015 90 4906ft 141kts
27-Oct-18 11:06 33.271156 -117.265371 96 4905ft 141kts
27-Oct-18 11:07 33.266580 -117.218683 96 4906ft 141kts
27-Oct-18 11:08 33.262101 -117.172403 96 4906ft 141kts
27-Oct-18 11:09 33.257638 -117.125735 96 4906ft 141kts
27-Oct-18 11:10 33.246067 -117.081815 130 4761ft 149kts
27-Oct-18 11:11 33.216887 -117.042111 131 3899ft 161kts
27-Oct-18 11:12 33.183685 -117.016247 210 3417ft 138kts
27-Oct-18 11:13 33.165725 -117.051193 241 3434ft 121kts
27-Oct-18 11:14 33.158080 -117.091970 259 3568ft 117kts
27-Oct-18 11:15 33.151849 -117.131804 259 2919ft 117kts
27-Oct-18 11:16 33.145652 -117.171066 259 2211ft 120kts
27-Oct-18 11:17 33.139422 -117.210048 259 1530ft 118kts
27-Oct-18 11:18 33.134060 -117.243693 259 841ft 87kts
27-Oct-18 11:19 33.130005 -117.270453 258 397ft 81kts
27-Oct-18 11:20 33.126369 -117.286849 77 308ft 0kts
27-Oct-18 11:21 33.126753 -117.284256 79 308ft 16kts
27-Oct-18 11:22 33.127771 -117.277890 79 308ft 21kts
27-Oct-18 11:23 33.127971 -117.274597 352 308ft 0kts
27-Oct-18 11:24 33.127971 -117.274597 352 308ft 0kts
27-Oct-18 11:25 33.127970 -117.274597 352 308ft 0kts
27-Oct-18 11:26 33.127970 -117.274597 352 308ft 0kts
27-Oct-18 11:27 33.127970 -117.274597 352 308ft 0kts
27-Oct-18 11:28 33.127970 -117.274597 352 308ft 0kts
27-Oct-18 11:29 33.127970 -117.274597 352 308ft 0kts
27-Oct-18 11:30 33.127970 -117.274597 352 308ft 0kts
27-Oct-18 11:31 33.127970 -117.274597 352 308ft 0kts
27-Oct-18 11:32 33.127970 -117.274597 352 308ft 0kts
27-Oct-18 11:33 33.127970 -117.274597 352 308ft 0kts
27-Oct-18 11:34 33.127970 -117.274597 352 308ft 0kts

Navigation Log

Ident Type
1. KAVX Airport
2. OCN Navaid
3. KCRQ Airport